sensor_id;sensor_type;location;lat;lon;timestamp;P1;durP1;ratioP1;P2;durP2;ratioP2
43807;SDS011;29438;50.664;10.098;2022-11-03T00:01:49;4.20;;;0.85;;
43807;SDS011;29438;50.664;10.098;2022-11-03T00:04:16;4.05;;;0.95;;
43807;SDS011;29438;50.664;10.098;2022-11-03T00:06:44;6.07;;;0.75;;
43807;SDS011;29438;50.664;10.098;2022-11-03T00:09:11;2.60;;;0.70;;
43807;SDS011;29438;50.664;10.098;2022-11-03T00:11:39;2.55;;;1.05;;
43807;SDS011;29438;50.664;10.098;2022-11-03T00:14:06;4.03;;;0.93;;
43807;SDS011;29438;50.664;10.098;2022-11-03T00:16:33;3.75;;;1.02;;
43807;SDS011;29438;50.664;10.098;2022-11-03T00:18:59;4.80;;;1.02;;
43807;SDS011;29438;50.664;10.098;2022-11-03T00:21:25;2.85;;;0.82;;
43807;SDS011;29438;50.664;10.098;2022-11-03T00:23:50;4.90;;;1.00;;
43807;SDS011;29438;50.664;10.098;2022-11-03T00:26:20;6.45;;;1.13;;
43807;SDS011;29438;50.664;10.098;2022-11-03T00:28:51;5.30;;;0.82;;
43807;SDS011;29438;50.664;10.098;2022-11-03T00:31:19;6.55;;;1.17;;
43807;SDS011;29438;50.664;10.098;2022-11-03T00:33:55;2.45;;;0.70;;
43807;SDS011;29438;50.664;10.098;2022-11-03T00:36:22;3.17;;;0.80;;
43807;SDS011;29438;50.664;10.098;2022-11-03T00:38:59;3.70;;;0.68;;
43807;SDS011;29438;50.664;10.098;2022-11-03T00:41:25;3.95;;;0.93;;
43807;SDS011;29438;50.664;10.098;2022-11-03T00:43:51;4.70;;;0.95;;
43807;SDS011;29438;50.664;10.098;2022-11-03T00:46:18;4.15;;;0.85;;
43807;SDS011;29438;50.664;10.098;2022-11-03T00:48:44;2.78;;;1.00;;
43807;SDS011;29438;50.664;10.098;2022-11-03T00:51:11;4.72;;;1.05;;
43807;SDS011;29438;50.664;10.098;2022-11-03T00:53:38;3.40;;;0.80;;
43807;SDS011;29438;50.664;10.098;2022-11-03T00:56:06;5.55;;;0.77;;
43807;SDS011;29438;50.664;10.098;2022-11-03T00:58:40;3.13;;;0.80;;
43807;SDS011;29438;50.664;10.098;2022-11-03T01:01:10;8.68;;;1.38;;
43807;SDS011;29438;50.664;10.098;2022-11-03T01:03:44;3.85;;;0.73;;
43807;SDS011;29438;50.664;10.098;2022-11-03T01:06:30;5.43;;;1.10;;
43807;SDS011;29438;50.664;10.098;2022-11-03T01:09:17;3.25;;;1.00;;
43807;SDS011;29438;50.664;10.098;2022-11-03T01:14:24;5.70;;;1.10;;
43807;SDS011;29438;50.664;10.098;2022-11-03T01:16:52;4.05;;;0.60;;
43807;SDS011;29438;50.664;10.098;2022-11-03T01:19:17;6.53;;;1.15;;
43807;SDS011;29438;50.664;10.098;2022-11-03T01:21:43;2.83;;;1.13;;
43807;SDS011;29438;50.664;10.098;2022-11-03T01:24:08;6.20;;;0.80;;
43807;SDS011;29438;50.664;10.098;2022-11-03T01:26:34;5.60;;;0.70;;
43807;SDS011;29438;50.664;10.098;2022-11-03T01:28:59;3.05;;;0.93;;
43807;SDS011;29438;50.664;10.098;2022-11-03T01:31:25;3.88;;;0.90;;
43807;SDS011;29438;50.664;10.098;2022-11-03T01:33:52;3.08;;;0.80;;
43807;SDS011;29438;50.664;10.098;2022-11-03T01:36:19;1.80;;;0.75;;
43807;SDS011;29438;50.664;10.098;2022-11-03T01:38:45;1.52;;;0.60;;
43807;SDS011;29438;50.664;10.098;2022-11-03T01:41:21;6.15;;;0.75;;
43807;SDS011;29438;50.664;10.098;2022-11-03T01:43:50;4.85;;;0.90;;
43807;SDS011;29438;50.664;10.098;2022-11-03T01:49:35;4.88;;;1.00;;
43807;SDS011;29438;50.664;10.098;2022-11-03T01:54:44;3.20;;;0.73;;
43807;SDS011;29438;50.664;10.098;2022-11-03T01:57:14;5.13;;;1.33;;
43807;SDS011;29438;50.664;10.098;2022-11-03T01:59:44;2.95;;;0.85;;
43807;SDS011;29438;50.664;10.098;2022-11-03T02:02:11;7.50;;;1.48;;
43807;SDS011;29438;50.664;10.098;2022-11-03T02:04:37;4.75;;;1.10;;
43807;SDS011;29438;50.664;10.098;2022-11-03T02:07:23;5.07;;;1.23;;
43807;SDS011;29438;50.664;10.098;2022-11-03T02:09:57;6.60;;;1.20;;
43807;SDS011;29438;50.664;10.098;2022-11-03T02:12:23;5.03;;;1.20;;
43807;SDS011;29438;50.664;10.098;2022-11-03T02:14:52;5.15;;;1.20;;
43807;SDS011;29438;50.664;10.098;2022-11-03T02:17:20;5.22;;;1.50;;
43807;SDS011;29438;50.664;10.098;2022-11-03T02:22:28;4.10;;;1.50;;
43807;SDS011;29438;50.664;10.098;2022-11-03T02:27:59;8.55;;;1.70;;
43807;SDS011;29438;50.664;10.098;2022-11-03T02:30:27;5.25;;;1.80;;
43807;SDS011;29438;50.664;10.098;2022-11-03T02:36:15;8.52;;;2.05;;
43807;SDS011;29438;50.664;10.098;2022-11-03T02:44:12;7.22;;;2.10;;
43807;SDS011;29438;50.664;10.098;2022-11-03T02:46:41;9.07;;;2.30;;
43807;SDS011;29438;50.664;10.098;2022-11-03T02:49:08;11.30;;;2.42;;
43807;SDS011;29438;50.664;10.098;2022-11-03T02:51:33;5.03;;;1.77;;
43807;SDS011;29438;50.664;10.098;2022-11-03T02:56:30;10.50;;;2.88;;
43807;SDS011;29438;50.664;10.098;2022-11-03T02:59:02;7.32;;;2.80;;
43807;SDS011;29438;50.664;10.098;2022-11-03T03:01:36;5.13;;;2.40;;
43807;SDS011;29438;50.664;10.098;2022-11-03T03:04:36;9.45;;;2.67;;
43807;SDS011;29438;50.664;10.098;2022-11-03T03:07:12;8.68;;;2.70;;
43807;SDS011;29438;50.664;10.098;2022-11-03T03:09:44;6.50;;;2.58;;
43807;SDS011;29438;50.664;10.098;2022-11-03T03:12:15;11.45;;;2.83;;
43807;SDS011;29438;50.664;10.098;2022-11-03T03:14:43;8.40;;;2.47;;
43807;SDS011;29438;50.664;10.098;2022-11-03T03:20:03;11.82;;;3.38;;
43807;SDS011;29438;50.664;10.098;2022-11-03T03:25:42;9.80;;;3.13;;
43807;SDS011;29438;50.664;10.098;2022-11-03T03:28:18;10.52;;;3.10;;
43807;SDS011;29438;50.664;10.098;2022-11-03T03:30:48;14.73;;;3.33;;
43807;SDS011;29438;50.664;10.098;2022-11-03T03:33:15;15.70;;;3.85;;
43807;SDS011;29438;50.664;10.098;2022-11-03T03:35:43;11.20;;;4.00;;
43807;SDS011;29438;50.664;10.098;2022-11-03T03:38:13;14.60;;;4.00;;
43807;SDS011;29438;50.664;10.098;2022-11-03T03:40:43;19.17;;;4.60;;
43807;SDS011;29438;50.664;10.098;2022-11-03T03:43:12;12.82;;;4.43;;
43807;SDS011;29438;50.664;10.098;2022-11-03T03:45:38;14.25;;;4.97;;
43807;SDS011;29438;50.664;10.098;2022-11-03T03:48:07;16.92;;;5.07;;
43807;SDS011;29438;50.664;10.098;2022-11-03T03:50:34;14.18;;;5.20;;
43807;SDS011;29438;50.664;10.098;2022-11-03T03:53:03;19.65;;;5.03;;
43807;SDS011;29438;50.664;10.098;2022-11-03T03:55:33;13.95;;;4.40;;
43807;SDS011;29438;50.664;10.098;2022-11-03T03:58:06;14.00;;;4.18;;
43807;SDS011;29438;50.664;10.098;2022-11-03T04:00:36;13.68;;;4.40;;
43807;SDS011;29438;50.664;10.098;2022-11-03T04:03:04;15.00;;;4.15;;
43807;SDS011;29438;50.664;10.098;2022-11-03T04:05:30;12.95;;;4.43;;
43807;SDS011;29438;50.664;10.098;2022-11-03T04:07:55;16.77;;;4.78;;
43807;SDS011;29438;50.664;10.098;2022-11-03T04:10:22;10.05;;;4.30;;
43807;SDS011;29438;50.664;10.098;2022-11-03T04:12:48;13.90;;;4.45;;
43807;SDS011;29438;50.664;10.098;2022-11-03T04:15:33;15.98;;;3.78;;
43807;SDS011;29438;50.664;10.098;2022-11-03T04:18:17;13.45;;;3.92;;
43807;SDS011;29438;50.664;10.098;2022-11-03T04:21:02;14.35;;;3.72;;
43807;SDS011;29438;50.664;10.098;2022-11-03T04:23:47;13.60;;;4.15;;
43807;SDS011;29438;50.664;10.098;2022-11-03T04:26:16;16.65;;;4.65;;
43807;SDS011;29438;50.664;10.098;2022-11-03T04:28:43;10.82;;;3.50;;
43807;SDS011;29438;50.664;10.098;2022-11-03T04:31:13;9.10;;;3.83;;
43807;SDS011;29438;50.664;10.098;2022-11-03T04:33:40;14.18;;;4.18;;
43807;SDS011;29438;50.664;10.098;2022-11-03T04:36:24;14.57;;;3.97;;
43807;SDS011;29438;50.664;10.098;2022-11-03T04:38:50;8.82;;;3.10;;
43807;SDS011;29438;50.664;10.098;2022-11-03T04:41:21;12.38;;;4.00;;
43807;SDS011;29438;50.664;10.098;2022-11-03T04:43:50;11.10;;;3.22;;
43807;SDS011;29438;50.664;10.098;2022-11-03T04:46:19;11.60;;;3.35;;
43807;SDS011;29438;50.664;10.098;2022-11-03T04:48:50;9.93;;;4.13;;
43807;SDS011;29438;50.664;10.098;2022-11-03T04:51:19;12.63;;;3.85;;
43807;SDS011;29438;50.664;10.098;2022-11-03T04:53:55;11.35;;;3.95;;
43807;SDS011;29438;50.664;10.098;2022-11-03T04:56:30;10.10;;;3.70;;
43807;SDS011;29438;50.664;10.098;2022-11-03T04:58:57;12.32;;;4.30;;
43807;SDS011;29438;50.664;10.098;2022-11-03T05:01:23;14.23;;;4.55;;
43807;SDS011;29438;50.664;10.098;2022-11-03T05:03:49;12.52;;;4.07;;
43807;SDS011;29438;50.664;10.098;2022-11-03T05:06:27;10.15;;;3.80;;
43807;SDS011;29438;50.664;10.098;2022-11-03T05:09:01;11.25;;;3.60;;
43807;SDS011;29438;50.664;10.098;2022-11-03T05:11:39;10.20;;;4.15;;
43807;SDS011;29438;50.664;10.098;2022-11-03T05:14:13;12.98;;;4.82;;
43807;SDS011;29438;50.664;10.098;2022-11-03T05:16:44;12.82;;;4.55;;
43807;SDS011;29438;50.664;10.098;2022-11-03T05:19:16;18.33;;;4.78;;
43807;SDS011;29438;50.664;10.098;2022-11-03T05:21:54;14.15;;;4.55;;
43807;SDS011;29438;50.664;10.098;2022-11-03T05:24:23;14.75;;;5.03;;
43807;SDS011;29438;50.664;10.098;2022-11-03T05:26:52;12.95;;;5.22;;
43807;SDS011;29438;50.664;10.098;2022-11-03T05:29:27;15.02;;;5.22;;
43807;SDS011;29438;50.664;10.098;2022-11-03T05:32:01;13.57;;;4.80;;
43807;SDS011;29438;50.664;10.098;2022-11-03T05:36:59;16.00;;;5.03;;
43807;SDS011;29438;50.664;10.098;2022-11-03T05:39:39;16.05;;;5.28;;
43807;SDS011;29438;50.664;10.098;2022-11-03T05:42:23;15.35;;;4.57;;
43807;SDS011;29438;50.664;10.098;2022-11-03T05:44:57;14.80;;;5.30;;
43807;SDS011;29438;50.664;10.098;2022-11-03T05:47:27;14.00;;;4.90;;
43807;SDS011;29438;50.664;10.098;2022-11-03T05:52:49;10.18;;;4.32;;
43807;SDS011;29438;50.664;10.098;2022-11-03T05:57:54;15.75;;;5.35;;
43807;SDS011;29438;50.664;10.098;2022-11-03T06:00:26;11.10;;;5.13;;
43807;SDS011;29438;50.664;10.098;2022-11-03T06:02:56;14.45;;;4.90;;
43807;SDS011;29438;50.664;10.098;2022-11-03T06:05:23;20.25;;;6.55;;
43807;SDS011;29438;50.664;10.098;2022-11-03T06:07:52;18.58;;;5.90;;
43807;SDS011;29438;50.664;10.098;2022-11-03T06:10:29;21.10;;;6.90;;
43807;SDS011;29438;50.664;10.098;2022-11-03T06:13:06;20.38;;;6.47;;
43807;SDS011;29438;50.664;10.098;2022-11-03T06:15:37;22.95;;;6.47;;
43807;SDS011;29438;50.664;10.098;2022-11-03T06:18:13;23.30;;;6.95;;
43807;SDS011;29438;50.664;10.098;2022-11-03T06:20:40;22.63;;;6.43;;
43807;SDS011;29438;50.664;10.098;2022-11-03T06:23:09;20.70;;;6.53;;
43807;SDS011;29438;50.664;10.098;2022-11-03T06:25:39;18.92;;;6.35;;
43807;SDS011;29438;50.664;10.098;2022-11-03T06:28:07;20.65;;;6.22;;
43807;SDS011;29438;50.664;10.098;2022-11-03T06:30:40;15.55;;;5.78;;
43807;SDS011;29438;50.664;10.098;2022-11-03T06:33:12;16.67;;;6.13;;
43807;SDS011;29438;50.664;10.098;2022-11-03T06:35:48;16.33;;;6.15;;
43807;SDS011;29438;50.664;10.098;2022-11-03T06:38:18;17.17;;;6.45;;
43807;SDS011;29438;50.664;10.098;2022-11-03T06:40:48;19.20;;;6.25;;
43807;SDS011;29438;50.664;10.098;2022-11-03T06:43:22;14.30;;;5.60;;
43807;SDS011;29438;50.664;10.098;2022-11-03T06:45:53;16.73;;;6.32;;
43807;SDS011;29438;50.664;10.098;2022-11-03T06:48:25;18.83;;;5.88;;
43807;SDS011;29438;50.664;10.098;2022-11-03T06:50:53;18.58;;;5.38;;
43807;SDS011;29438;50.664;10.098;2022-11-03T06:53:21;16.13;;;5.53;;
43807;SDS011;29438;50.664;10.098;2022-11-03T06:55:56;14.07;;;5.53;;
43807;SDS011;29438;50.664;10.098;2022-11-03T06:58:23;13.02;;;5.45;;
43807;SDS011;29438;50.664;10.098;2022-11-03T07:00:59;12.30;;;3.67;;
43807;SDS011;29438;50.664;10.098;2022-11-03T07:03:27;12.73;;;4.63;;
43807;SDS011;29438;50.664;10.098;2022-11-03T07:05:57;12.38;;;4.95;;
43807;SDS011;29438;50.664;10.098;2022-11-03T07:08:29;14.18;;;5.22;;
43807;SDS011;29438;50.664;10.098;2022-11-03T07:11:15;21.10;;;5.50;;
43807;SDS011;29438;50.664;10.098;2022-11-03T07:13:50;14.63;;;5.50;;
43807;SDS011;29438;50.664;10.098;2022-11-03T07:16:36;16.50;;;5.75;;
43807;SDS011;29438;50.664;10.098;2022-11-03T07:21:46;18.52;;;6.30;;
43807;SDS011;29438;50.664;10.098;2022-11-03T07:24:15;17.60;;;5.82;;
43807;SDS011;29438;50.664;10.098;2022-11-03T07:26:46;20.65;;;6.15;;
43807;SDS011;29438;50.664;10.098;2022-11-03T07:29:18;24.48;;;6.97;;
43807;SDS011;29438;50.664;10.098;2022-11-03T07:31:47;19.13;;;6.68;;
43807;SDS011;29438;50.664;10.098;2022-11-03T07:34:17;17.70;;;6.50;;
43807;SDS011;29438;50.664;10.098;2022-11-03T07:36:45;22.92;;;7.25;;
43807;SDS011;29438;50.664;10.098;2022-11-03T07:39:12;19.67;;;6.85;;
43807;SDS011;29438;50.664;10.098;2022-11-03T07:41:42;14.73;;;5.80;;
43807;SDS011;29438;50.664;10.098;2022-11-03T07:44:08;20.60;;;6.75;;
43807;SDS011;29438;50.664;10.098;2022-11-03T07:46:39;19.23;;;6.18;;
43807;SDS011;29438;50.664;10.098;2022-11-03T07:49:07;19.05;;;6.70;;
43807;SDS011;29438;50.664;10.098;2022-11-03T07:51:44;21.67;;;6.53;;
43807;SDS011;29438;50.664;10.098;2022-11-03T07:54:12;17.42;;;6.65;;
43807;SDS011;29438;50.664;10.098;2022-11-03T08:02:16;17.88;;;6.30;;
43807;SDS011;29438;50.664;10.098;2022-11-03T08:04:47;21.48;;;7.35;;
43807;SDS011;29438;50.664;10.098;2022-11-03T08:07:14;19.17;;;6.88;;
43807;SDS011;29438;50.664;10.098;2022-11-03T08:09:39;19.48;;;6.97;;
43807;SDS011;29438;50.664;10.098;2022-11-03T08:12:05;16.60;;;6.88;;
43807;SDS011;29438;50.664;10.098;2022-11-03T08:14:30;14.50;;;6.13;;
43807;SDS011;29438;50.664;10.098;2022-11-03T08:16:56;14.30;;;5.60;;
43807;SDS011;29438;50.664;10.098;2022-11-03T08:19:21;16.55;;;6.35;;
43807;SDS011;29438;50.664;10.098;2022-11-03T08:21:47;14.82;;;5.60;;
43807;SDS011;29438;50.664;10.098;2022-11-03T08:24:12;14.80;;;5.50;;
43807;SDS011;29438;50.664;10.098;2022-11-03T08:26:38;10.63;;;4.70;;
43807;SDS011;29438;50.664;10.098;2022-11-03T08:29:03;13.00;;;4.97;;
43807;SDS011;29438;50.664;10.098;2022-11-03T08:31:29;10.65;;;4.85;;
43807;SDS011;29438;50.664;10.098;2022-11-03T08:33:55;12.55;;;5.10;;
43807;SDS011;29438;50.664;10.098;2022-11-03T08:36:20;13.20;;;4.93;;
43807;SDS011;29438;50.664;10.098;2022-11-03T08:38:46;10.27;;;3.95;;
43807;SDS011;29438;50.664;10.098;2022-11-03T08:41:11;11.07;;;4.13;;
43807;SDS011;29438;50.664;10.098;2022-11-03T08:43:37;9.63;;;4.03;;
43807;SDS011;29438;50.664;10.098;2022-11-03T08:46:02;9.65;;;3.78;;
43807;SDS011;29438;50.664;10.098;2022-11-03T08:48:28;10.55;;;4.13;;
43807;SDS011;29438;50.664;10.098;2022-11-03T08:50:54;9.73;;;4.03;;
43807;SDS011;29438;50.664;10.098;2022-11-03T08:53:20;9.95;;;3.85;;
43807;SDS011;29438;50.664;10.098;2022-11-03T08:55:48;8.57;;;3.63;;
43807;SDS011;29438;50.664;10.098;2022-11-03T08:58:13;7.85;;;3.45;;
43807;SDS011;29438;50.664;10.098;2022-11-03T09:00:39;8.48;;;4.05;;
43807;SDS011;29438;50.664;10.098;2022-11-03T09:03:05;9.43;;;4.10;;
43807;SDS011;29438;50.664;10.098;2022-11-03T09:05:31;8.93;;;3.58;;
43807;SDS011;29438;50.664;10.098;2022-11-03T09:07:56;12.30;;;5.25;;
43807;SDS011;29438;50.664;10.098;2022-11-03T09:10:22;9.35;;;4.35;;
43807;SDS011;29438;50.664;10.098;2022-11-03T09:12:48;11.32;;;5.00;;
43807;SDS011;29438;50.664;10.098;2022-11-03T09:15:13;14.60;;;5.10;;
43807;SDS011;29438;50.664;10.098;2022-11-03T09:17:39;11.60;;;4.63;;
43807;SDS011;29438;50.664;10.098;2022-11-03T09:20:05;10.82;;;4.47;;
43807;SDS011;29438;50.664;10.098;2022-11-03T09:22:30;14.02;;;5.28;;
43807;SDS011;29438;50.664;10.098;2022-11-03T09:24:56;9.65;;;4.53;;
43807;SDS011;29438;50.664;10.098;2022-11-03T09:27:22;9.80;;;4.28;;
43807;SDS011;29438;50.664;10.098;2022-11-03T09:29:48;9.85;;;4.45;;
43807;SDS011;29438;50.664;10.098;2022-11-03T09:32:14;12.40;;;4.65;;
43807;SDS011;29438;50.664;10.098;2022-11-03T09:34:40;11.95;;;4.20;;
43807;SDS011;29438;50.664;10.098;2022-11-03T09:37:06;11.18;;;4.50;;
43807;SDS011;29438;50.664;10.098;2022-11-03T09:39:32;13.27;;;3.90;;
43807;SDS011;29438;50.664;10.098;2022-11-03T09:41:58;11.10;;;4.07;;
43807;SDS011;29438;50.664;10.098;2022-11-03T09:44:24;11.40;;;4.75;;
43807;SDS011;29438;50.664;10.098;2022-11-03T09:46:50;10.60;;;4.35;;
43807;SDS011;29438;50.664;10.098;2022-11-03T09:49:16;10.30;;;3.88;;
43807;SDS011;29438;50.664;10.098;2022-11-03T09:51:44;11.93;;;3.97;;
43807;SDS011;29438;50.664;10.098;2022-11-03T09:54:11;11.80;;;4.18;;
43807;SDS011;29438;50.664;10.098;2022-11-03T09:56:39;11.95;;;4.75;;
43807;SDS011;29438;50.664;10.098;2022-11-03T09:59:12;11.63;;;4.25;;
43807;SDS011;29438;50.664;10.098;2022-11-03T10:01:41;12.95;;;4.28;;
43807;SDS011;29438;50.664;10.098;2022-11-03T10:04:09;13.07;;;4.63;;
43807;SDS011;29438;50.664;10.098;2022-11-03T10:06:37;14.10;;;4.82;;
43807;SDS011;29438;50.664;10.098;2022-11-03T10:09:03;10.93;;;4.68;;
43807;SDS011;29438;50.664;10.098;2022-11-03T10:11:32;12.80;;;4.63;;
43807;SDS011;29438;50.664;10.098;2022-11-03T10:13:58;11.93;;;5.13;;
43807;SDS011;29438;50.664;10.098;2022-11-03T10:16:24;10.32;;;4.22;;
43807;SDS011;29438;50.664;10.098;2022-11-03T10:18:51;12.23;;;4.70;;
43807;SDS011;29438;50.664;10.098;2022-11-03T10:21:19;13.07;;;4.90;;
43807;SDS011;29438;50.664;10.098;2022-11-03T10:23:49;9.15;;;4.15;;
43807;SDS011;29438;50.664;10.098;2022-11-03T10:26:16;11.05;;;4.63;;
43807;SDS011;29438;50.664;10.098;2022-11-03T10:29:26;12.23;;;4.13;;
43807;SDS011;29438;50.664;10.098;2022-11-03T10:31:39;11.32;;;4.35;;
43807;SDS011;29438;50.664;10.098;2022-11-03T10:39:34;10.10;;;3.88;;
43807;SDS011;29438;50.664;10.098;2022-11-03T10:42:00;11.75;;;5.00;;
43807;SDS011;29438;50.664;10.098;2022-11-03T10:44:26;10.00;;;4.00;;
43807;SDS011;29438;50.664;10.098;2022-11-03T10:49:29;13.50;;;4.68;;
43807;SDS011;29438;50.664;10.098;2022-11-03T10:52:38;10.95;;;4.63;;
43807;SDS011;29438;50.664;10.098;2022-11-03T10:54:49;10.40;;;4.10;;
43807;SDS011;29438;50.664;10.098;2022-11-03T10:57:17;13.40;;;4.43;;
43807;SDS011;29438;50.664;10.098;2022-11-03T10:59:44;13.13;;;5.22;;
43807;SDS011;29438;50.664;10.098;2022-11-03T11:02:18;12.27;;;5.13;;
43807;SDS011;29438;50.664;10.098;2022-11-03T11:04:51;10.75;;;5.10;;
43807;SDS011;29438;50.664;10.098;2022-11-03T11:07:23;10.38;;;4.63;;
43807;SDS011;29438;50.664;10.098;2022-11-03T11:10:06;11.48;;;5.25;;
43807;SDS011;29438;50.664;10.098;2022-11-03T11:12:37;11.55;;;4.57;;
43807;SDS011;29438;50.664;10.098;2022-11-03T11:15:33;13.57;;;4.88;;
43807;SDS011;29438;50.664;10.098;2022-11-03T11:18:01;10.00;;;4.35;;
43807;SDS011;29438;50.664;10.098;2022-11-03T11:20:31;9.73;;;4.18;;
43807;SDS011;29438;50.664;10.098;2022-11-03T11:28:40;9.75;;;4.20;;
43807;SDS011;29438;50.664;10.098;2022-11-03T11:36:42;8.68;;;3.90;;
43807;SDS011;29438;50.664;10.098;2022-11-03T11:42:11;11.50;;;4.03;;
43807;SDS011;29438;50.664;10.098;2022-11-03T11:47:20;10.27;;;4.82;;
43807;SDS011;29438;50.664;10.098;2022-11-03T11:52:35;8.48;;;3.92;;
43807;SDS011;29438;50.664;10.098;2022-11-03T11:55:06;9.50;;;4.22;;
43807;SDS011;29438;50.664;10.098;2022-11-03T11:57:43;11.55;;;4.72;;
43807;SDS011;29438;50.664;10.098;2022-11-03T12:00:19;11.07;;;4.88;;
43807;SDS011;29438;50.664;10.098;2022-11-03T12:02:46;11.38;;;4.45;;
43807;SDS011;29438;50.664;10.098;2022-11-03T12:05:25;12.02;;;5.00;;
43807;SDS011;29438;50.664;10.098;2022-11-03T12:07:54;13.65;;;5.40;;
43807;SDS011;29438;50.664;10.098;2022-11-03T12:10:24;12.55;;;5.07;;
43807;SDS011;29438;50.664;10.098;2022-11-03T12:12:56;11.65;;;4.57;;
43807;SDS011;29438;50.664;10.098;2022-11-03T12:23:58;8.02;;;3.83;;
43807;SDS011;29438;50.664;10.098;2022-11-03T12:29:09;8.27;;;3.63;;
43807;SDS011;29438;50.664;10.098;2022-11-03T12:31:35;10.00;;;4.03;;
43807;SDS011;29438;50.664;10.098;2022-11-03T12:34:00;9.73;;;3.90;;
43807;SDS011;29438;50.664;10.098;2022-11-03T12:36:26;8.10;;;3.83;;
43807;SDS011;29438;50.664;10.098;2022-11-03T12:38:52;8.48;;;3.90;;
43807;SDS011;29438;50.664;10.098;2022-11-03T12:41:17;9.55;;;3.63;;
43807;SDS011;29438;50.664;10.098;2022-11-03T12:43:49;7.95;;;3.47;;
43807;SDS011;29438;50.664;10.098;2022-11-03T12:46:17;9.55;;;3.67;;
43807;SDS011;29438;50.664;10.098;2022-11-03T12:48:43;9.10;;;3.67;;
43807;SDS011;29438;50.664;10.098;2022-11-03T12:51:10;10.38;;;3.63;;
43807;SDS011;29438;50.664;10.098;2022-11-03T12:53:37;8.40;;;3.88;;
43807;SDS011;29438;50.664;10.098;2022-11-03T12:56:03;7.90;;;3.47;;
43807;SDS011;29438;50.664;10.098;2022-11-03T12:58:29;7.35;;;3.40;;
43807;SDS011;29438;50.664;10.098;2022-11-03T13:00:54;9.75;;;4.38;;
43807;SDS011;29438;50.664;10.098;2022-11-03T13:03:20;8.55;;;3.88;;
43807;SDS011;29438;50.664;10.098;2022-11-03T13:05:45;8.13;;;3.90;;
43807;SDS011;29438;50.664;10.098;2022-11-03T13:08:11;7.85;;;3.40;;
43807;SDS011;29438;50.664;10.098;2022-11-03T13:10:36;8.25;;;3.20;;
43807;SDS011;29438;50.664;10.098;2022-11-03T13:13:02;7.45;;;3.30;;
43807;SDS011;29438;50.664;10.098;2022-11-03T13:15:27;9.30;;;4.40;;
43807;SDS011;29438;50.664;10.098;2022-11-03T13:17:53;8.15;;;3.92;;
43807;SDS011;29438;50.664;10.098;2022-11-03T13:20:18;8.57;;;4.15;;
43807;SDS011;29438;50.664;10.098;2022-11-03T13:22:44;6.15;;;3.15;;
43807;SDS011;29438;50.664;10.098;2022-11-03T13:25:09;9.07;;;4.18;;
43807;SDS011;29438;50.664;10.098;2022-11-03T13:27:35;13.75;;;5.05;;
43807;SDS011;29438;50.664;10.098;2022-11-03T13:30:01;11.23;;;3.50;;
43807;SDS011;29438;50.664;10.098;2022-11-03T13:32:27;10.35;;;3.90;;
43807;SDS011;29438;50.664;10.098;2022-11-03T13:34:53;7.68;;;3.88;;
43807;SDS011;29438;50.664;10.098;2022-11-03T13:37:18;7.80;;;3.63;;
43807;SDS011;29438;50.664;10.098;2022-11-03T13:39:44;6.75;;;2.78;;
43807;SDS011;29438;50.664;10.098;2022-11-03T13:42:09;9.38;;;3.30;;
43807;SDS011;29438;50.664;10.098;2022-11-03T13:44:35;10.52;;;3.50;;
43807;SDS011;29438;50.664;10.098;2022-11-03T13:47:00;8.43;;;3.80;;
43807;SDS011;29438;50.664;10.098;2022-11-03T13:49:26;7.22;;;3.47;;
43807;SDS011;29438;50.664;10.098;2022-11-03T13:51:52;10.73;;;3.95;;
43807;SDS011;29438;50.664;10.098;2022-11-03T13:54:17;9.75;;;3.72;;
43807;SDS011;29438;50.664;10.098;2022-11-03T13:56:43;7.63;;;3.35;;
43807;SDS011;29438;50.664;10.098;2022-11-03T13:59:08;13.10;;;3.50;;
43807;SDS011;29438;50.664;10.098;2022-11-03T14:01:34;8.10;;;3.33;;
43807;SDS011;29438;50.664;10.098;2022-11-03T14:03:59;10.30;;;3.67;;
43807;SDS011;29438;50.664;10.098;2022-11-03T14:06:25;9.48;;;3.83;;
43807;SDS011;29438;50.664;10.098;2022-11-03T14:08:51;11.32;;;4.00;;
43807;SDS011;29438;50.664;10.098;2022-11-03T14:11:16;8.18;;;3.50;;
43807;SDS011;29438;50.664;10.098;2022-11-03T14:14:00;8.98;;;3.55;;
43807;SDS011;29438;50.664;10.098;2022-11-03T14:16:26;11.10;;;3.35;;
43807;SDS011;29438;50.664;10.098;2022-11-03T14:18:51;8.15;;;3.08;;
43807;SDS011;29438;50.664;10.098;2022-11-03T14:21:17;7.72;;;3.30;;
43807;SDS011;29438;50.664;10.098;2022-11-03T14:23:42;8.32;;;4.07;;
43807;SDS011;29438;50.664;10.098;2022-11-03T14:26:08;6.82;;;2.92;;
43807;SDS011;29438;50.664;10.098;2022-11-03T14:28:33;10.27;;;3.55;;
43807;SDS011;29438;50.664;10.098;2022-11-03T14:30:59;7.63;;;3.47;;
43807;SDS011;29438;50.664;10.098;2022-11-03T14:33:27;9.98;;;4.03;;
43807;SDS011;29438;50.664;10.098;2022-11-03T14:35:53;7.32;;;3.58;;
43807;SDS011;29438;50.664;10.098;2022-11-03T14:38:18;7.68;;;3.38;;
43807;SDS011;29438;50.664;10.098;2022-11-03T14:40:44;8.07;;;3.55;;
43807;SDS011;29438;50.664;10.098;2022-11-03T14:43:28;7.80;;;3.20;;
43807;SDS011;29438;50.664;10.098;2022-11-03T14:45:53;11.23;;;4.10;;
43807;SDS011;29438;50.664;10.098;2022-11-03T14:48:19;8.15;;;3.28;;
43807;SDS011;29438;50.664;10.098;2022-11-03T14:50:44;6.30;;;2.95;;
43807;SDS011;29438;50.664;10.098;2022-11-03T14:53:10;7.15;;;3.28;;
43807;SDS011;29438;50.664;10.098;2022-11-03T14:55:36;7.43;;;3.58;;
43807;SDS011;29438;50.664;10.098;2022-11-03T14:58:01;10.00;;;3.55;;
43807;SDS011;29438;50.664;10.098;2022-11-03T15:00:27;7.97;;;3.08;;
43807;SDS011;29438;50.664;10.098;2022-11-03T15:02:52;6.45;;;3.17;;
43807;SDS011;29438;50.664;10.098;2022-11-03T15:05:18;8.18;;;3.50;;
43807;SDS011;29438;50.664;10.098;2022-11-03T15:08:02;7.78;;;3.35;;
43807;SDS011;29438;50.664;10.098;2022-11-03T15:10:27;7.97;;;3.17;;
43807;SDS011;29438;50.664;10.098;2022-11-03T15:12:53;7.38;;;3.63;;
43807;SDS011;29438;50.664;10.098;2022-11-03T15:15:18;9.40;;;3.53;;
43807;SDS011;29438;50.664;10.098;2022-11-03T15:17:44;9.70;;;3.22;;
43807;SDS011;29438;50.664;10.098;2022-11-03T15:20:10;8.10;;;3.22;;
43807;SDS011;29438;50.664;10.098;2022-11-03T15:22:35;9.73;;;3.22;;
43807;SDS011;29438;50.664;10.098;2022-11-03T15:25:01;8.25;;;3.38;;
43807;SDS011;29438;50.664;10.098;2022-11-03T15:27:26;9.82;;;3.47;;
43807;SDS011;29438;50.664;10.098;2022-11-03T15:29:52;8.45;;;3.10;;
43807;SDS011;29438;50.664;10.098;2022-11-03T15:32:17;10.40;;;3.38;;
43807;SDS011;29438;50.664;10.098;2022-11-03T15:34:43;8.18;;;3.58;;
43807;SDS011;29438;50.664;10.098;2022-11-03T15:37:09;10.23;;;3.83;;
43807;SDS011;29438;50.664;10.098;2022-11-03T15:39:34;8.18;;;3.63;;
43807;SDS011;29438;50.664;10.098;2022-11-03T15:42:00;9.00;;;3.60;;
43807;SDS011;29438;50.664;10.098;2022-11-03T15:44:25;7.57;;;3.15;;
43807;SDS011;29438;50.664;10.098;2022-11-03T15:46:51;8.50;;;3.50;;
43807;SDS011;29438;50.664;10.098;2022-11-03T15:49:16;6.63;;;3.42;;
43807;SDS011;29438;50.664;10.098;2022-11-03T15:51:42;8.80;;;3.60;;
43807;SDS011;29438;50.664;10.098;2022-11-03T15:54:07;8.23;;;3.10;;
43807;SDS011;29438;50.664;10.098;2022-11-03T15:56:33;12.07;;;4.47;;
43807;SDS011;29438;50.664;10.098;2022-11-03T15:58:58;8.20;;;3.65;;
43807;SDS011;29438;50.664;10.098;2022-11-03T16:01:24;8.50;;;3.53;;
43807;SDS011;29438;50.664;10.098;2022-11-03T16:03:49;8.40;;;3.47;;
43807;SDS011;29438;50.664;10.098;2022-11-03T16:06:15;7.95;;;3.55;;